• Join FlightAware (Why Join?)
  • Login
  • US Flag 
Trick or treat! (Boo!!) 
01:54AM EDT


 

Airport Tracker/Info


-or-


 

Live Flight TrackerFlight Track Log ✈ CNS5150 ✈ 01-May-2013 ✈ KAVL - KPDK

Flight Track Log - Related Links

Times and Time Zones

All times are in EDT time to prevent confusion due to time zone crossing. See the CNS5150 flight status page for this flight to view local times or setup timezone preferences in your user account.

Time Position Orientation Groundspeed Altitude Reporting Facility
EDT Latitude Longitude Course Direction KTS MPH feet Rate Location/Type
05:11PM 35.3425 -82.5875 223° Southwest 162 186 7,500  Level Atlanta Center
05:12PM 35.3242 -82.6336 244° Southwest 167 192 8,700 1,200 Climbing Atlanta Center
05:13PM 35.2872 -82.6725 221° Southwest 172 198 9,900 1,200 Climbing Atlanta Center
05:14PM 35.1808 -82.7859 219° Southwest  Level FlightAware Approximate
05:14PM 35.2500 -82.7136 222° Southwest 189 217 11,100  Level Atlanta Center
05:15PM 35.1398 -82.8307 223° Southwest  Level FlightAware Approximate
05:15PM 35.2089 -82.7575 221° Southwest 196 226 12,000  Level Atlanta Center
05:16PM 35.1572 -82.8117 221° Southwest 222 255 12,000  Level Atlanta Center
05:17PM 35.1033 -82.8683 221° Southwest 245 282 12,000  Level Atlanta Center
05:18PM 35.0519 -82.9250 222° Southwest 256 295 12,000  Level Atlanta Center
05:19PM 34.9981 -82.9814 221° Southwest 261 300 12,000  Level Atlanta Center
05:20PM 34.9442 -83.0403 222° Southwest 261 300 12,000 -60 Level Atlanta Center
05:21PM 34.8842 -83.0994 219° Southwest 261 300 11,900 -60 Descending Atlanta Center
05:22PM 34.8303 -83.1556 221° Southwest 255 293 11,900  Level Atlanta Center
05:23PM 34.7869 -83.2167 229° Southwest 248 285 11,900 -300 Level Atlanta Center
05:24PM 34.7289 -83.2656 215° Southwest 254 292 11,400 -480 Descending Atlanta Center
05:25PM 34.6792 -83.3342 229° Southwest 259 298 11,000 -420 Descending Atlanta Center
05:26PM 34.6567 -83.4200 252° West 264 304 10,600 -540 Descending Atlanta Center
05:27PM 34.6258 -83.5111 248° West 278 320 10,000 -780 Descending Atlanta Center
05:28PM 34.6033 -83.5972 252° West 283 326 9,100 -960 Descending Atlanta Center
05:29PM 34.5764 -83.6831 249° West 283 326 8,100 -600 Descending Atlanta Center
05:30PM 34.5475 -83.7614 246° West 270 311 8,000 -300 Descending Atlanta Center
05:31PM 34.4933 -83.8044 213° Southwest 235 270 7,600 -660 Descending Atlanta Center
05:32PM 34.4244 -83.8247 194° South 245 282 6,700 -840 Descending Atlanta Center
05:33PM 34.3472 -83.8450 192° South 259 298 6,000 -360 Descending Atlanta Center
05:34PM 34.2889 -83.8803 207° Southwest 253 291 6,000  Level Atlanta Center
05:35PM 34.2283 -83.9158 206° Southwest 247 284 6,000  Level Atlanta Center
05:36PM 34.1700 -83.9483 205° Southwest 237 273 6,000  Level Atlanta Center
05:36PM 34.1167 -83.9667 196° South 227 261 6,000  Level Atlanta TRACON
05:37PM 34.0500 -83.9667 180° South 228 262 6,000  Level Atlanta TRACON
05:38PM 34.0000 -83.9833 195° South 223 257 6,000 -300 Level Atlanta TRACON
05:39PM 33.9333 -83.9833 180° South 229 264 5,500 -720 Descending Atlanta TRACON
05:40PM 33.8833 -84.0333 220° Southwest 237 273 4,600 -960 Descending Atlanta TRACON
05:41PM 33.8500 -84.1000 239° Southwest 241 277 3,600 -840 Descending Atlanta TRACON
05:42PM 33.8333 -84.1667 253° West 234 269 3,100 -600 Descending Atlanta TRACON
05:43PM 33.8167 -84.2333 253° West 205 236 2,500 -420 Descending Atlanta TRACON
05:44PM 33.8333 -84.2833 292° West 159 183 2,300 -600 Descending Atlanta TRACON
05:45PM 33.8500 -84.3167 301° West 114 131 1,400 -900 Descending Atlanta TRACON
05:47PM 33.8756 -84.3020 25° Northeast  Level Estimated
05:54PM 33.8756 -84.3020 301° West  Level Estimated